EDT,Max TemperatureF,Mean TemperatureF,Min TemperatureF,Max Dew PointF,MeanDew PointF,Min DewpointF,Max Humidity, Mean Humidity, Min Humidity, Max Sea Level PressureIn, Mean Sea Level PressureIn, Min Sea Level PressureIn, Max VisibilityMiles, Mean VisibilityMiles, Min VisibilityMiles, Max Wind SpeedMPH, Mean Wind SpeedMPH, Max Gust SpeedMPH,PrecipitationIn, CloudCover, Events, WindDirDegrees
2012-8-1,75,68,60,63,61,57,100,79,57,29.95,29.93,29.91,10,7,0,14,4,,0.00,4,,286
2012-8-2,80,70,59,64,61,57,100,76,48,29.99,29.95,29.92,10,8,0,9,3,,0.00,2,,213
2012-8-3,86,73,60,64,61,57,94,64,40,30.10,30.04,29.97,10,10,8,7,3,,0.00,0,,155
2012-8-4,86,77,68,70,67,63,94,72,51,30.14,30.09,30.03,10,9,4,16,7,23,0.00,1,,166
2012-8-5,77,72,66,70,67,64,94,80,73,30.09,30.02,29.98,10,10,5,16,11,28,0.16,5,Thunderstorm,224
2012-8-6,71,63,55,64,52,45,94,66,41,30.18,30.13,30.08,10,10,9,13,6,17,0.00,1,,340
2012-8-7,78,66,53,63,56,48,94,71,42,30.08,30.04,29.99,10,10,6,13,5,,0.00,0,,213
2012-8-8,80,70,59,66,62,57,100,79,54,30.03,30.00,29.97,10,8,0,21,5,26,0.00,2,Thunderstorm,201
2012-8-9,73,66,60,64,62,55,100,85,60,30.00,29.94,29.86,10,7,0,10,4,,0.12,5,Thunderstorm,276
2012-8-10,69,64,60,64,61,57,100,90,77,29.85,29.77,29.72,10,9,4,13,7,,0.08,7,Thunderstorm,176
2012-8-11,62,60,57,61,56,52,100,87,72,29.94,29.85,29.76,10,8,0,16,8,24,0.08,7,,190
2012-8-12,69,64,59,61,58,55,94,85,64,30.05,29.98,29.93,10,9,2,15,9,18,0.10,6,,236
2012-8-13,75,65,55,61,56,54,100,77,50,30.08,30.04,30.00,10,9,0,9,6,,0.00,3,,228
2012-8-14,73,66,59,63,60,57,94,86,64,30.02,29.94,29.90,10,9,4,14,5,,0.01,7,Thunderstorm,93
2012-8-15,73,66,59,63,58,52,100,79,53,30.01,29.97,29.92,10,7,0,12,3,17,0.00,4,,315
2012-8-16,78,66,53,61,57,52,94,75,47,30.04,29.98,29.87,10,8,0,12,4,,0.00,1,,198
2012-8-17,71,66,60,61,57,52,94,73,53,29.96,29.90,29.83,10,10,3,20,9,24,0.15,4,,268
2012-8-18,66,58,50,54,47,39,94,66,45,30.03,30.00,29.96,10,10,0,12,2,,0.00,2,,345
2012-8-19,71,58,46,52,48,41,93,64,43,30.01,29.97,29.92,10,10,10,10,2,,0.00,3,Thunderstorm,320
2012-8-20,69,61,53,57,52,48,100,74,46,30.02,29.95,29.91,10,9,0,14,4,18,0.05,3,,327
2012-8-21,71,60,48,54,49,45,100,69,46,30.15,30.09,30.02,10,8,0,10,3,16,0.00,3,,256
2012-8-22,73,62,51,57,52,48,94,70,47,30.20,30.16,30.13,10,10,0,12,4,,0.00,1,,232
2012-8-23,78,66,55,57,53,50,94,66,39,30.22,30.19,30.17,10,9,2,10,4,16,0.00,1,,241
2012-8-24,82,68,55,59,54,50,88,61,35,30.23,30.20,30.17,10,10,10,8,3,,0.00,1,,182
2012-8-25,82,71,60,63,57,54,88,62,39,30.27,30.23,30.20,10,10,5,12,5,,0.00,0,,165
2012-8-26,78,68,59,64,59,54,88,73,54,30.30,30.23,30.16,10,10,8,13,6,18,0.00,2,,163
2012-8-27,73,68,62,66,63,61,100,90,69,30.16,30.07,29.98,10,7,1,10,8,,0.65,5,,198
2012-8-28,71,66,60,64,59,54,94,77,53,30.07,30.03,29.98,10,9,3,16,8,18,0.01,3,,309
2012-8-29,66,58,51,55,49,43,88,68,49,30.13,30.09,30.07,10,10,10,10,5,,0.00,1,,353
2012-8-30,77,62,48,55,49,45,94,65,34,30.17,30.13,30.09,10,10,8,9,4,,0.00,0,,197
2012-8-31,86,70,55,66,56,48,78,58,37,30.12,30.08,30.03,10,10,10,21,10,29,0.00,0,,237